Time;durP1;ratioP1;P1;durP2;ratioP2;P2;SDS_P1;SDS_P2;PMS_P1;PMS_P2;Temp;Humidity;BMP_temperature;BMP_pressure;BME280_temperature;BME280_humidity;BME280_pressure;Samples;Min_cycle;Max_cycle;Signal;HPM_P1;HPM_P2
2022/09/25 00:00:55;;;;;;;11.18;3.00;;;8.90;99.90;;;;;;6184273;23;20067;-84
2022/09/25 00:03:26;;;;;;;11.55;2.80;;;8.70;99.90;;;;;;6184128;23;20334;-84
2022/09/25 00:05:58;;;;;;;11.38;3.15;;;9.90;99.90;;;;;;6180990;23;20405;-84
2022/09/25 00:08:24;;;;;;;11.95;3.20;;;8.70;99.90;;;;;;6184108;23;20445;-84
2022/09/25 00:10:50;;;;;;;12.15;3.90;;;8.60;99.90;;;;;;6184638;23;20017;-84
2022/09/25 00:13:18;;;;;;;13.32;4.05;;;8.60;99.90;;;;;;6181516;23;20020;-84
2022/09/25 00:15:49;;;;;;;10.88;3.15;;;8.60;99.90;;;;;;6182522;23;20016;-84
2022/09/25 00:18:16;;;;;;;14.70;3.53;;;8.60;99.90;;;;;;6182650;23;20017;-84
2022/09/25 00:20:42;;;;;;;13.90;3.10;;;8.50;99.90;;;;;;6181966;23;20009;-84
2022/09/25 00:23:08;;;;;;;10.05;2.80;;;8.50;99.90;;;;;;6182531;23;20127;-84
2022/09/25 00:25:34;;;;;;;11.00;3.00;;;10.10;99.90;;;;;;6182135;23;20067;-84
2022/09/25 00:27:59;;;;;;;12.82;3.05;;;8.40;99.90;;;;;;6184569;23;20060;-84
2022/09/25 00:30:25;;;;;;;12.25;3.40;;;8.50;99.90;;;;;;6182267;23;20382;-84
2022/09/25 00:32:50;;;;;;;13.25;3.42;;;8.40;99.90;;;;;;6182230;23;20036;-84
2022/09/25 00:35:16;;;;;;;11.98;3.22;;;8.40;99.90;;;;;;6182679;23;20047;-84
2022/09/25 00:37:42;;;;;;;11.20;3.22;;;8.40;99.90;;;;;;6183102;23;20028;-84
2022/09/25 00:40:08;;;;;;;14.15;3.40;;;8.40;99.90;;;;;;6183094;23;20088;-84
2022/09/25 00:42:35;;;;;;;11.88;3.17;;;8.40;99.90;;;;;;6185650;23;20472;-84
2022/09/25 00:45:04;;;;;;;12.05;3.42;;;8.40;99.90;;;;;;6184681;23;20009;-84
2022/09/25 00:47:55;;;;;;;14.57;3.08;;;8.40;99.90;;;;;;6183319;23;20105;-84
2022/09/25 00:50:30;;;;;;;12.63;3.58;;;8.30;99.90;;;;;;6183805;23;20017;-84
2022/09/25 00:53:04;;;;;;;10.38;3.58;;;8.30;99.90;;;;;;6186079;23;20446;-84
2022/09/25 00:55:34;;;;;;;12.95;3.28;;;8.30;99.90;;;;;;6183535;23;20087;-84
2022/09/25 00:58:02;;;;;;;11.52;3.28;;;8.50;99.90;;;;;;6184581;23;20469;-84
2022/09/25 01:00:29;;;;;;;13.00;3.20;;;8.20;99.90;;;;;;6183738;23;20082;-84
2022/09/25 01:02:56;;;;;;;12.32;3.17;;;8.30;99.90;;;;;;6185424;23;20028;-84
2022/09/25 01:05:26;;;;;;;12.95;3.33;;;8.30;99.90;;;;;;6184014;23;20438;-84
2022/09/25 01:07:56;;;;;;;14.18;3.55;;;8.20;99.90;;;;;;6183146;23;20072;-84
2022/09/25 01:10:22;;;;;;;16.27;3.70;;;8.20;99.90;;;;;;6184050;23;20045;-84
2022/09/25 01:12:49;;;;;;;11.73;3.28;;;8.10;99.90;;;;;;6184195;23;20013;-84
2022/09/25 01:15:18;;;;;;;11.45;3.60;;;8.10;99.90;;;;;;6185211;23;20314;-84
2022/09/25 01:18:15;;;;;;;11.30;3.13;;;8.10;99.90;;;;;;6185800;23;20437;-84
2022/09/25 01:20:43;;;;;;;12.77;3.28;;;8.10;99.90;;;;;;6185633;23;20483;-84
2022/09/25 01:23:27;;;;;;;10.77;3.33;;;8.10;99.90;;;;;;6184820;23;20017;-84
2022/09/25 01:26:05;;;;;;;12.13;3.38;;;8.10;99.90;;;;;;6185745;23;20369;-84
2022/09/25 01:31:15;;;;;;;11.43;3.83;;;8.10;99.90;;;;;;6205040;22;20024;-84
2022/09/25 01:34:01;;;;;;;12.77;4.28;;;7.90;99.90;;;;;;6185971;23;20028;-84
2022/09/25 01:37:12;;;;;;;11.55;4.00;;;8.00;99.90;;;;;;6182361;23;20483;-84
2022/09/25 01:40:14;;;;;;;13.13;3.90;;;8.00;99.90;;;;;;6186339;23;20013;-84
2022/09/25 01:49:05;;;;;;;14.05;4.13;;;8.10;99.90;;;;;;6183577;23;20396;-84
2022/09/25 01:51:51;;;;;;;12.13;3.50;;;8.00;99.90;;;;;;6184282;23;20085;-84
2022/09/25 02:01:46;;;;;;;13.93;4.20;;;7.80;99.90;;;;;;6184460;23;20017;-84
2022/09/25 02:04:23;;;;;;;14.40;3.65;;;7.70;99.90;;;;;;6182242;23;20032;-84
2022/09/25 02:06:53;;;;;;;11.20;3.45;;;7.80;99.90;;;;;;6183529;23;20012;-84
2022/09/25 02:09:35;;;;;;;11.90;3.80;;;7.80;99.90;;;;;;6183077;23;20013;-84
2022/09/25 02:12:10;;;;;;;10.77;3.78;;;7.80;99.90;;;;;;6184731;23;20360;-84
2022/09/25 02:14:51;;;;;;;14.07;3.53;;;7.80;99.90;;;;;;6183909;23;20013;-84
2022/09/25 02:23:43;;;;;;;12.13;3.40;;;7.70;99.90;;;;;;6190663;22;20024;-83
2022/09/25 02:26:19;;;;;;;11.90;3.83;;;7.80;99.90;;;;;;6183942;23;20104;-84
2022/09/25 02:28:52;;;;;;;11.27;3.88;;;9.10;99.90;;;;;;6183001;23;20013;-83
2022/09/25 02:31:39;;;;;;;12.50;3.88;;;8.30;99.90;;;;;;6184943;23;20048;-83
2022/09/25 02:34:14;;;;;;;10.32;3.42;;;7.70;99.90;;;;;;6182825;23;20024;-83
2022/09/25 02:36:52;;;;;;;15.23;3.88;;;9.00;99.90;;;;;;6185259;23;20021;-83
2022/09/25 02:39:21;;;;;;;13.27;3.95;;;7.70;99.90;;;;;;6182182;23;20064;-84
2022/09/25 02:42:08;;;;;;;12.70;3.40;;;7.60;99.90;;;;;;6183604;23;20472;-83
2022/09/25 02:45:19;;;;;;;11.10;4.00;;;7.70;99.90;;;;;;6185326;23;20059;-83
2022/09/25 02:47:56;;;;;;;14.40;3.88;;;7.60;99.90;;;;;;6182804;23;20130;-83
2022/09/25 02:50:50;;;;;;;14.85;3.70;;;7.50;99.90;;;;;;6182871;23;20459;-83
2022/09/25 02:53:34;;;;;;;11.18;3.70;;;7.50;99.90;;;;;;6182103;23;20028;-83
2022/09/25 02:56:22;;;;;;;11.73;3.78;;;7.40;99.90;;;;;;6185040;23;20048;-83
2022/09/25 02:58:58;;;;;;;11.05;3.70;;;7.40;99.90;;;;;;6185261;23;20079;-83
2022/09/25 03:01:30;;;;;;;10.88;3.58;;;7.40;99.90;;;;;;6181726;23;20020;-83
2022/09/25 03:03:59;;;;;;;12.73;3.42;;;7.30;99.90;;;;;;6183222;23;20028;-83
2022/09/25 03:06:25;;;;;;;13.63;3.45;;;8.10;99.90;;;;;;6184329;23;20009;-83
2022/09/25 03:08:55;;;;;;;14.65;3.75;;;7.20;99.90;;;;;;6182093;23;20009;-83
2022/09/25 03:11:23;;;;;;;14.18;3.60;;;7.20;99.90;;;;;;6182626;23;20104;-83
2022/09/25 03:13:57;;;;;;;12.57;3.53;;;7.20;99.90;;;;;;6185234;23;20005;-83
2022/09/25 03:16:41;;;;;;;11.23;3.45;;;7.80;99.90;;;;;;6181740;23;20437;-83
2022/09/25 03:19:07;;;;;;;13.38;3.90;;;7.30;99.90;;;;;;6184659;23;20120;-83
2022/09/25 03:21:33;;;;;;;16.17;3.63;;;7.30;99.90;;;;;;6181728;23;20072;-84
2022/09/25 03:23:59;;;;;;;12.82;3.80;;;7.30;99.90;;;;;;6183375;23;20017;-83
2022/09/25 03:26:26;;;;;;;10.32;3.30;;;7.20;99.90;;;;;;6182444;23;20033;-83
2022/09/25 03:28:53;;;;;;;10.40;3.63;;;7.20;99.90;;;;;;6184338;23;20013;-83
2022/09/25 03:31:19;;;;;;;12.90;3.67;;;7.30;99.90;;;;;;6182413;23;20314;-84
2022/09/25 03:33:46;;;;;;;14.23;3.80;;;7.20;99.90;;;;;;6184993;23;20422;-83
2022/09/25 03:36:17;;;;;;;12.70;3.53;;;7.20;99.90;;;;;;6181468;23;20009;-83
2022/09/25 03:38:45;;;;;;;11.70;3.80;;;7.10;99.90;;;;;;6183159;23;20021;-83
2022/09/25 03:41:13;;;;;;;13.00;3.63;;;8.30;99.90;;;;;;6182847;23;20310;-83
2022/09/25 03:43:40;;;;;;;13.00;3.50;;;7.00;99.90;;;;;;6183978;23;20089;-83
2022/09/25 03:46:10;;;;;;;12.13;3.30;;;7.00;99.90;;;;;;6184433;23;20028;-83
2022/09/25 03:48:36;;;;;;;10.03;3.60;;;7.00;99.90;;;;;;6183137;23;20021;-83
2022/09/25 03:51:02;;;;;;;12.10;3.50;;;7.00;99.90;;;;;;6184165;23;20020;-83
2022/09/25 03:53:32;;;;;;;14.37;3.77;;;7.00;99.90;;;;;;6184827;23;20013;-83
2022/09/25 03:56:06;;;;;;;13.27;3.50;;;6.90;99.90;;;;;;6184661;23;20017;-83
2022/09/25 03:58:33;;;;;;;13.15;3.38;;;6.90;99.90;;;;;;6183262;23;20484;-83
2022/09/25 04:01:00;;;;;;;13.30;3.65;;;7.00;99.90;;;;;;6182361;23;20025;-83
2022/09/25 04:03:28;;;;;;;14.88;3.58;;;7.00;99.90;;;;;;6181729;23;20021;-83
2022/09/25 04:05:58;;;;;;;14.73;3.75;;;6.90;99.90;;;;;;6181243;23;20319;-83
2022/09/25 04:08:25;;;;;;;13.95;3.58;;;7.00;99.90;;;;;;6184214;23;20013;-83
2022/09/25 04:10:55;;;;;;;12.20;3.72;;;6.90;99.90;;;;;;6183465;23;20017;-83
2022/09/25 04:13:28;;;;;;;15.30;3.60;;;8.40;99.90;;;;;;6185395;23;20009;-83
2022/09/25 04:15:55;;;;;;;11.93;3.43;;;6.90;99.90;;;;;;6184733;23;20013;-83
2022/09/25 04:18:21;;;;;;;11.60;3.85;;;7.70;99.90;;;;;;6182730;22;20268;-83
2022/09/25 04:20:47;;;;;;;11.10;3.60;;;6.90;99.90;;;;;;6184856;23;20350;-83
2022/09/25 04:23:13;;;;;;;14.87;3.63;;;7.00;99.90;;;;;;6186334;23;20017;-84
2022/09/25 04:25:38;;;;;;;11.52;3.15;;;7.60;99.90;;;;;;6183407;23;20017;-83
2022/09/25 04:28:06;;;;;;;14.27;3.65;;;7.00;99.90;;;;;;6186645;23;20499;-83
2022/09/25 04:30:32;;;;;;;11.07;3.42;;;7.00;99.90;;;;;;6185884;22;20464;-84
2022/09/25 04:39:56;;;;;;;10.73;3.88;;;6.70;99.90;;;;;;6188429;22;20075;-84
2022/09/25 04:42:23;;;;;;;12.50;3.78;;;7.00;99.90;;;;;;6184063;23;20100;-84
2022/09/25 04:53:26;;;;;;;13.80;3.42;;;7.20;99.90;;;;;;6202943;22;20081;-84
2022/09/25 04:56:04;;;;;;;11.52;3.45;;;6.40;99.90;;;;;;6185828;23;20017;-84
2022/09/25 04:58:55;;;;;;;11.15;2.80;;;7.10;99.90;;;;;;6187288;22;20038;-83
2022/09/25 05:01:20;;;;;;;9.77;2.80;;;7.10;99.90;;;;;;6187823;23;20089;-84
2022/09/25 05:03:48;;;;;;;9.95;2.88;;;7.10;99.90;;;;;;6216216;23;20461;-84
2022/09/25 05:06:14;;;;;;;8.93;2.63;;;7.10;99.90;;;;;;6188801;23;20455;-84
2022/09/25 05:08:40;;;;;;;11.70;3.07;;;7.00;99.90;;;;;;6188471;23;20013;-84
2022/09/25 05:11:06;;;;;;;9.50;3.17;;;7.10;99.90;;;;;;6189185;23;20013;-84
2022/09/25 05:13:32;;;;;;;10.70;3.13;;;7.10;99.90;;;;;;6189112;23;20017;-84
2022/09/25 05:15:58;;;;;;;11.10;3.00;;;7.20;99.90;;;;;;6188167;23;20088;-84
2022/09/25 05:18:24;;;;;;;12.30;3.10;;;7.20;99.90;;;;;;6188734;23;20013;-83
2022/09/25 05:20:56;;;;;;;12.93;3.30;;;7.20;99.90;;;;;;6189039;23;20473;-84
2022/09/25 05:23:22;;;;;;;13.30;3.30;;;8.10;99.90;;;;;;6188809;23;20017;-84
2022/09/25 05:25:56;;;;;;;15.10;3.27;;;7.10;99.90;;;;;;6189165;23;20019;-84
2022/09/25 05:28:23;;;;;;;9.23;3.03;;;7.10;99.90;;;;;;6214580;23;20020;-84
2022/09/25 05:30:49;;;;;;;9.70;2.87;;;7.10;99.90;;;;;;6189218;23;20326;-84
2022/09/25 05:33:15;;;;;;;11.20;2.90;;;7.00;99.90;;;;;;6189295;23;20020;-84
2022/09/25 05:35:40;;;;;;;13.40;3.37;;;8.10;99.90;;;;;;6214885;23;20096;-84
2022/09/25 05:38:07;;;;;;;8.57;3.10;;;7.10;99.90;;;;;;6188853;23;20016;-84
2022/09/25 05:40:33;;;;;;;10.27;3.25;;;7.10;99.90;;;;;;6215795;23;20013;-84
2022/09/25 05:43:00;;;;;;;9.60;3.05;;;7.20;99.90;;;;;;6188384;23;20012;-84
2022/09/25 05:45:26;;;;;;;10.82;3.10;;;7.10;99.90;;;;;;6215713;23;20027;-84
2022/09/25 05:48:05;;;;;;;14.07;3.40;;;7.20;99.90;;;;;;6188876;23;20021;-84
2022/09/25 05:50:31;;;;;;;7.95;3.00;;;7.20;99.90;;;;;;6214654;23;20096;-84
2022/09/25 05:53:04;;;;;;;11.88;2.78;;;7.30;99.90;;;;;;6188633;23;20091;-84
2022/09/25 05:55:29;;;;;;;11.20;3.00;;;7.30;99.90;;;;;;6188387;23;20040;-84
2022/09/25 05:58:00;;;;;;;10.35;3.50;;;7.30;99.90;;;;;;6188083;23;20043;-85
2022/09/25 06:00:26;;;;;;;13.05;3.30;;;7.30;99.90;;;;;;6188623;23;20021;-84
2022/09/25 06:02:55;;;;;;;8.60;3.10;;;7.30;99.90;;;;;;6188791;23;20020;-85
2022/09/25 06:05:21;;;;;;;10.55;3.08;;;7.30;99.90;;;;;;6187394;23;20345;-82
2022/09/25 06:07:52;;;;;;;12.13;3.60;;;8.60;99.90;;;;;;6189043;23;20044;-82
2022/09/25 06:10:26;;;;;;;10.38;3.00;;;7.30;99.90;;;;;;6187296;23;20055;-81
2022/09/25 06:12:57;;;;;;;;;;;7.30;99.90;;;;;;6189411;23;20016;-81
2022/09/25 06:15:24;;;;;;;10.73;3.13;;;8.80;99.90;;;;;;6215386;23;19938;-82
2022/09/25 06:18:15;;;;;;;11.77;3.28;;;7.40;99.90;;;;;;6214403;23;20044;-83
2022/09/25 06:20:40;;;;;;;8.82;2.58;;;7.00;99.90;;;;;;6188518;23;20017;-82
2022/09/25 06:23:06;;;;;;;10.65;3.03;;;7.90;99.90;;;;;;6188970;23;20044;-83
2022/09/25 06:25:32;;;;;;;11.88;2.95;;;7.70;99.90;;;;;;6215033;23;20016;-82
2022/09/25 06:27:59;;;;;;;9.00;2.80;;;7.60;99.90;;;;;;6188856;23;20044;-85
2022/09/25 06:30:32;;;;;;;11.80;3.40;;;7.60;99.90;;;;;;6188609;23;20024;-83
2022/09/25 06:32:59;;;;;;;12.02;3.10;;;7.70;99.90;;;;;;6215065;23;20013;-82
2022/09/25 06:35:26;;;;;;;12.32;3.00;;;7.90;99.90;;;;;;6188000;23;20483;-82
2022/09/25 06:37:56;;;;;;;12.40;2.80;;;7.90;99.90;;;;;;6185784;23;20013;-82
2022/09/25 06:40:22;;;;;;;12.35;3.42;;;8.00;99.90;;;;;;6212773;23;20032;-83
2022/09/25 06:42:49;;;;;;;15.43;3.33;;;8.10;99.90;;;;;;6187577;23;20453;-81
2022/09/25 06:45:15;;;;;;;9.75;3.60;;;8.30;99.90;;;;;;6186408;23;20051;-82
2022/09/25 06:47:41;;;;;;;9.80;3.45;;;8.40;99.90;;;;;;6211697;23;20020;-82
2022/09/25 06:50:07;;;;;;;12.20;3.10;;;8.60;99.90;;;;;;6213884;23;20313;-82
2022/09/25 06:52:32;;;;;;;11.05;3.58;;;8.70;99.90;;;;;;6212780;23;20048;-82
2022/09/25 06:54:58;;;;;;;10.35;3.05;;;8.80;99.90;;;;;;6187937;23;20027;-82
2022/09/25 06:57:24;;;;;;;9.82;2.90;;;8.80;99.90;;;;;;6187798;23;20520;-83
2022/09/25 06:59:49;;;;;;;9.23;2.63;;;8.90;99.90;;;;;;6187155;23;20017;-82
2022/09/25 07:04:59;;;;;;;;;;;9.40;99.90;;;;;;6188981;23;20100;-82
2022/09/25 07:07:25;;;;;;;12.98;2.60;;;9.10;99.90;;;;;;6187145;23;20015;-82
2022/09/25 07:09:56;;;;;;;9.82;2.20;;;9.20;99.90;;;;;;6188200;23;20344;-82
2022/09/25 07:13:17;;;;;;;9.93;2.40;;;9.20;99.90;;;;;;6184249;22;20027;-82
2022/09/25 07:15:58;;;;;;;8.80;2.25;;;8.70;99.90;;;;;;6213442;23;20036;-82
2022/09/25 07:18:42;;;;;;;8.95;2.28;;;10.20;99.90;;;;;;6187480;23;20091;-81
2022/09/25 07:21:14;;;;;;;9.10;2.33;;;9.40;99.90;;;;;;6186973;23;20071;-81
2022/09/25 07:23:41;;;;;;;9.10;2.30;;;9.60;99.90;;;;;;6188166;23;20025;-81
2022/09/25 07:26:15;;;;;;;7.75;2.30;;;9.60;99.90;;;;;;6214853;23;20020;-81
2022/09/25 07:28:42;;;;;;;9.95;3.25;;;9.80;99.90;;;;;;6213962;23;20337;-81
2022/09/25 07:31:20;;;;;;;11.15;2.95;;;10.10;99.90;;;;;;6187623;23;20058;-81
2022/09/25 07:33:46;;;;;;;11.13;2.47;;;9.90;99.90;;;;;;6187610;23;20016;-81
2022/09/25 07:36:12;;;;;;;10.98;2.78;;;10.00;99.90;;;;;;6183068;22;20017;-82
2022/09/25 07:41:30;;;;;;;8.93;2.45;;;10.10;99.90;;;;;;6183776;22;20017;-82
2022/09/25 07:43:57;;;;;;;7.57;2.40;;;11.30;99.90;;;;;;6183569;23;20079;-82
2022/09/25 07:46:24;;;;;;;7.97;2.15;;;11.10;99.90;;;;;;6181911;23;20016;-81
2022/09/25 07:48:50;;;;;;;10.43;2.70;;;11.20;99.90;;;;;;6181549;23;20013;-82
2022/09/25 07:51:16;;;;;;;7.00;2.55;;;10.50;99.90;;;;;;6184462;23;20087;-82
2022/09/25 07:53:44;;;;;;;7.90;2.45;;;10.60;99.90;;;;;;6184751;23;20036;-82
2022/09/25 07:56:10;;;;;;;7.75;2.00;;;11.20;99.90;;;;;;6183542;23;20053;-83
2022/09/25 07:58:37;;;;;;;13.23;2.30;;;10.70;99.90;;;;;;6184758;23;20019;-83
2022/09/25 08:01:05;;;;;;;10.98;2.20;;;11.90;99.90;;;;;;6184008;23;20021;-83
2022/09/25 08:03:31;;;;;;;9.18;2.30;;;12.10;99.90;;;;;;6183389;23;20092;-82
2022/09/25 08:06:01;;;;;;;8.57;1.90;;;11.00;99.90;;;;;;6184663;23;20048;-82
2022/09/25 08:08:32;;;;;;;9.15;2.00;;;11.00;99.90;;;;;;6184237;23;20056;-82
2022/09/25 08:11:05;;;;;;;7.07;1.80;;;11.10;99.90;;;;;;6185533;23;20073;-82
2022/09/25 08:13:32;;;;;;;8.27;1.92;;;11.20;99.90;;;;;;6184739;23;20341;-82
2022/09/25 08:16:00;;;;;;;7.45;1.65;;;11.40;99.90;;;;;;6184661;23;20013;-84
2022/09/25 08:18:28;;;;;;;8.18;2.20;;;11.50;99.90;;;;;;6183700;23;20025;-85
2022/09/25 08:20:54;;;;;;;10.25;1.80;;;11.60;99.90;;;;;;6186665;23;20036;-84
2022/09/25 08:23:19;;;;;;;7.55;1.90;;;11.70;99.90;;;;;;6184286;23;20398;-83
2022/09/25 08:25:48;;;;;;;7.90;1.92;;;11.80;99.90;;;;;;6183392;23;20071;-84
2022/09/25 08:28:14;;;;;;;10.77;2.70;;;12.60;99.90;;;;;;6183394;23;20009;-82
2022/09/25 08:30:42;;;;;;;9.48;1.90;;;12.10;99.90;;;;;;6185991;23;20013;-82
2022/09/25 08:33:11;;;;;;;9.13;1.98;;;12.20;99.90;;;;;;6183232;23;20013;-83
2022/09/25 08:35:39;;;;;;;10.15;2.40;;;13.50;99.90;;;;;;6186208;23;20091;-83
2022/09/25 08:38:15;;;;;;;7.25;1.90;;;12.50;99.90;;;;;;6185026;23;20013;-84
2022/09/25 08:40:58;;;;;;;7.97;1.90;;;12.60;99.90;;;;;;6182772;23;20442;-84
2022/09/25 08:43:25;;;;;;;8.23;1.85;;;12.70;99.90;;;;;;6184051;23;20017;-83
2022/09/25 08:49:02;;;;;;;7.40;1.83;;;12.80;99.90;;;;;;6184109;23;20061;-84
2022/09/25 08:51:44;;;;;;;8.60;1.73;;;12.80;99.90;;;;;;6183920;23;20028;-84
2022/09/25 08:54:29;;;;;;;6.57;1.48;;;12.90;99.90;;;;;;6183359;23;20032;-83
2022/09/25 08:57:19;;;;;;;9.73;1.75;;;13.70;99.90;;;;;;6184593;23;20045;-84
2022/09/25 08:59:50;;;;;;;5.82;1.92;;;14.10;99.90;;;;;;6168701;23;20516;-84
2022/09/25 09:02:19;;;;;;;9.88;2.47;;;13.10;99.90;;;;;;6187616;23;20365;-84
2022/09/25 09:04:55;;;;;;;4.30;1.40;;;13.20;99.90;;;;;;6187328;23;20388;-84
2022/09/25 09:07:33;;;;;;;7.20;1.60;;;13.60;99.90;;;;;;6185420;23;20025;-84
2022/09/25 09:10:05;;;;;;;6.70;1.58;;;13.30;99.90;;;;;;6184771;23;20044;-84
2022/09/25 09:12:41;;;;;;;7.22;1.73;;;13.40;99.90;;;;;;6184159;23;20027;-84
2022/09/25 09:15:21;;;;;;;7.07;1.75;;;14.50;99.90;;;;;;6182715;23;20075;-84
2022/09/25 09:17:47;;;;;;;7.05;1.63;;;13.50;99.90;;;;;;6183988;23;20100;-83
2022/09/25 09:20:18;;;;;;;7.20;1.70;;;13.60;99.90;;;;;;6183991;23;20075;-84
2022/09/25 09:22:50;;;;;;;5.38;1.45;;;13.70;99.90;;;;;;6186107;23;20033;-84
2022/09/25 09:25:40;;;;;;;7.80;1.70;;;14.20;99.90;;;;;;6182416;23;20544;-83
2022/09/25 09:28:42;;;;;;;4.03;1.40;;;14.00;99.90;;;;;;6185647;23;20096;-82
2022/09/25 09:31:29;;;;;;;5.10;1.45;;;14.20;99.90;;;;;;6184121;23;20529;-82
2022/09/25 09:34:46;;;;;;;7.00;1.60;;;14.40;99.90;;;;;;6183016;22;20028;-83
2022/09/25 09:37:39;;;;;;;6.78;1.30;;;14.60;99.90;;;;;;6093668;23;20027;-83
2022/09/25 09:40:17;;;;;;;5.07;1.23;;;14.50;99.90;;;;;;6070577;23;20089;-83
2022/09/25 09:43:38;;;;;;;5.78;1.60;;;14.50;99.90;;;;;;6036088;23;20515;-84
2022/09/25 09:46:39;;;;;;;6.28;1.48;;;13.90;99.90;;;;;;6037156;23;20019;-84
2022/09/25 09:49:20;;;;;;;4.65;1.63;;;14.50;99.90;;;;;;6115528;23;20107;-84
2022/09/25 09:52:05;;;;;;;6.80;1.67;;;14.80;99.90;;;;;;6128794;23;20013;-84
2022/09/25 09:54:37;;;;;;;7.65;1.65;;;15.20;99.90;;;;;;6128540;23;20022;-84
2022/09/25 09:57:22;;;;;;;5.85;1.60;;;15.30;99.90;;;;;;6127769;23;20100;-83
2022/09/25 09:59:59;;;;;;;7.45;1.40;;;15.20;99.90;;;;;;6128803;23;20018;-84
2022/09/25 10:02:41;;;;;;;6.05;1.58;;;15.00;99.90;;;;;;6152108;23;20021;-84
2022/09/25 10:05:31;;;;;;;4.20;1.30;;;14.90;99.90;;;;;;6128221;23;20017;-84
2022/09/25 10:07:57;;;;;;;5.70;1.52;;;15.20;99.90;;;;;;6128485;23;20039;-84
2022/09/25 10:10:36;;;;;;;6.40;1.50;;;15.60;99.90;;;;;;6151631;23;20510;-83
2022/09/25 10:13:05;;;;;;;6.03;1.40;;;16.60;99.90;;;;;;6135043;23;20017;-84
2022/09/25 10:15:41;;;;;;;6.82;1.38;;;16.10;99.90;;;;;;6184015;23;20020;-86
2022/09/25 10:18:08;;;;;;;6.18;1.38;;;16.30;99.90;;;;;;6182982;23;20021;-84
2022/09/25 10:20:58;;;;;;;6.35;1.52;;;16.50;99.90;;;;;;6183781;23;20020;-84
2022/09/25 10:23:45;;;;;;;5.63;1.58;;;16.70;99.90;;;;;;6183046;23;20024;-84
2022/09/25 10:26:32;;;;;;;6.35;1.55;;;16.40;99.90;;;;;;6183362;23;20075;-83
2022/09/25 10:29:25;;;;;;;3.95;1.20;;;16.10;99.90;;;;;;6184244;23;20064;-84
2022/09/25 10:32:02;;;;;;;6.70;1.92;;;15.90;99.90;;;;;;6168461;23;20020;-83
2022/09/25 10:34:30;;;;;;;6.63;1.70;;;16.60;99.90;;;;;;6183209;23;20013;-83
2022/09/25 10:36:56;;;;;;;7.90;1.67;;;15.70;99.90;;;;;;6183899;23;20021;-84
2022/09/25 10:39:34;;;;;;;3.65;1.20;;;16.60;99.90;;;;;;6184481;23;20019;-83
2022/09/25 10:42:07;;;;;;;7.22;1.50;;;15.80;99.90;;;;;;6185131;23;20333;-83
2022/09/25 10:44:34;;;;;;;5.28;1.33;;;15.90;99.90;;;;;;6182125;23;20013;-83
2022/09/25 10:50:18;;;;;;;5.68;1.20;;;15.40;99.90;;;;;;6183580;23;20024;-84
2022/09/25 10:52:48;;;;;;;3.33;1.42;;;15.00;99.90;;;;;;6185330;23;20021;-85
2022/09/25 10:55:24;;;;;;;3.78;1.23;;;14.60;99.90;;;;;;6183412;23;20021;-84
2022/09/25 10:57:57;;;;;;;3.45;1.00;;;14.30;99.90;;;;;;6185437;23;20017;-84
2022/09/25 11:00:25;;;;;;;2.47;1.20;;;14.30;99.90;;;;;;6182100;23;20064;-83
2022/09/25 11:02:57;;;;;;;3.60;1.17;;;14.50;99.90;;;;;;6183653;23;20032;-84
2022/09/25 11:05:30;;;;;;;2.78;1.20;;;14.40;99.90;;;;;;6185302;23;20092;-84
2022/09/25 11:08:00;;;;;;;3.40;1.17;;;13.60;99.90;;;;;;6184582;23;20009;-83
2022/09/25 11:10:29;;;;;;;4.75;1.40;;;13.50;99.90;;;;;;6183534;23;20020;-83
2022/09/25 11:12:57;;;;;;;3.60;1.20;;;13.60;99.90;;;;;;6184541;23;20035;-83
2022/09/25 11:15:26;;;;;;;3.97;1.40;;;13.70;99.90;;;;;;6185095;23;20047;-83
2022/09/25 11:17:53;;;;;;;5.47;1.40;;;13.80;99.90;;;;;;6181001;23;20020;-82
2022/09/25 11:20:28;;;;;;;7.90;2.30;;;13.90;99.90;;;;;;6181083;23;20100;-83
2022/09/25 11:23:21;;;;;;;4.25;1.65;;;14.50;99.90;;;;;;6182649;23;20024;-86
2022/09/25 11:26:08;;;;;;;4.57;1.30;;;13.90;99.90;;;;;;6184301;23;20013;-82
2022/09/25 11:28:54;;;;;;;4.88;1.40;;;14.00;99.90;;;;;;6179291;23;20083;-82
2022/09/25 11:31:46;;;;;;;3.33;1.20;;;14.00;99.90;;;;;;6182415;23;20019;-82
2022/09/25 11:34:32;;;;;;;3.78;1.10;;;14.10;99.90;;;;;;6183147;23;20057;-82
2022/09/25 11:37:25;;;;;;;17.88;8.18;;;14.20;99.90;;;;;;6123277;23;20685;-82
2022/09/25 11:43:08;;;;;;;2.90;1.20;;;14.90;99.90;;;;;;6182065;23;20464;-82
2022/09/25 11:45:50;;;;;;;4.25;1.50;;;14.80;99.90;;;;;;6182932;23;20021;-82
2022/09/25 11:48:31;;;;;;;4.32;1.40;;;14.90;99.90;;;;;;6183503;23;20082;-82
2022/09/25 11:51:11;;;;;;;3.83;1.23;;;15.20;99.90;;;;;;6182961;23;20063;-82
2022/09/25 11:53:57;;;;;;;3.88;1.30;;;15.30;99.90;;;;;;6183078;23;20025;-82
2022/09/25 11:56:56;;;;;;;7.18;2.20;;;15.50;99.90;;;;;;6181510;23;20092;-82
2022/09/25 11:59:37;;;;;;;4.10;1.48;;;15.70;99.90;;;;;;6176594;23;20103;-82
2022/09/25 12:02:39;;;;;;;4.95;1.33;;;15.80;99.90;;;;;;6183678;23;20337;-82
2022/09/25 12:05:17;;;;;;;5.22;1.63;;;15.80;99.90;;;;;;6183704;23;20025;-82
2022/09/25 12:08:27;;;;;;;3.95;1.30;;;16.40;99.90;;;;;;6184771;23;20047;-82
2022/09/25 12:11:30;;;;;;;4.78;1.13;;;15.60;99.90;;;;;;6068509;23;20022;-82
2022/09/25 12:14:18;;;;;;;2.83;1.10;;;15.60;99.90;;;;;;6183079;23;20488;-82
2022/09/25 12:16:54;;;;;;;3.08;1.20;;;15.60;99.90;;;;;;6181759;23;20032;-82
2022/09/25 12:19:37;;;;;;;3.60;1.33;;;15.60;99.90;;;;;;6182596;23;20071;-82
2022/09/25 12:22:03;;;;;;;4.05;1.23;;;15.70;99.90;;;;;;6182994;23;20049;-82
2022/09/25 12:24:43;;;;;;;6.07;1.20;;;16.30;99.90;;;;;;6183582;23;20369;-82
2022/09/25 12:27:32;;;;;;;4.15;1.20;;;15.70;99.90;;;;;;6182291;23;20017;-82
2022/09/25 12:30:33;;;;;;;4.13;1.30;;;16.00;99.90;;;;;;6184256;23;20009;-82
2022/09/25 12:33:31;;;;;;;4.75;1.40;;;16.10;99.90;;;;;;6162129;23;20445;-82
2022/09/25 12:36:26;;;;;;;4.47;1.40;;;16.10;99.90;;;;;;6186726;23;20021;-82
2022/09/25 12:39:00;;;;;;;4.15;1.20;;;16.30;99.90;;;;;;6183943;23;20044;-82
2022/09/25 12:41:46;;;;;;;3.70;1.10;;;16.60;99.90;;;;;;6188516;23;20009;-82
2022/09/25 12:44:16;;;;;;;3.03;1.10;;;16.80;99.90;;;;;;6183520;23;20021;-82
2022/09/25 12:47:01;;;;;;;5.30;1.20;;;16.70;99.90;;;;;;6186569;23;20064;-82
2022/09/25 12:49:35;;;;;;;4.82;1.40;;;16.80;99.90;;;;;;6184310;23;20017;-81
2022/09/25 12:52:09;;;;;;;2.33;1.17;;;17.10;99.90;;;;;;6183856;23;20025;-82
2022/09/25 12:54:46;;;;;;;5.05;1.27;;;18.40;99.90;;;;;;6184613;23;20100;-82
2022/09/25 12:57:14;;;;;;;6.00;1.20;;;17.80;99.90;;;;;;6184282;23;20465;-82
2022/09/25 12:59:51;;;;;;;4.15;1.10;;;17.90;99.90;;;;;;6183814;23;20017;-82
2022/09/25 13:02:47;;;;;;;5.03;1.25;;;17.90;99.90;;;;;;6185857;23;20143;-82
2022/09/25 13:05:34;;;;;;;5.30;1.42;;;17.40;99.90;;;;;;6174257;23;20068;-82
2022/09/25 13:08:02;;;;;;;4.55;1.30;;;17.10;99.90;;;;;;6184540;23;20095;-82
2022/09/25 13:10:37;;;;;;;4.60;1.40;;;17.20;99.90;;;;;;6186020;23;20017;-82
2022/09/25 13:13:08;;;;;;;4.65;1.70;;;17.30;99.90;;;;;;6183597;23;20016;-82
2022/09/25 13:15:37;;;;;;;2.92;1.20;;;17.20;99.90;;;;;;6186040;23;20373;-82
2022/09/25 13:18:05;;;;;;;3.28;1.13;;;17.10;99.90;;;;;;6184180;23;20021;-82
2022/09/25 13:20:35;;;;;;;3.05;1.20;;;17.00;99.90;;;;;;6184714;23;20456;-82
2022/09/25 13:23:12;;;;;;;3.72;1.20;;;17.20;99.90;;;;;;6184421;23;20063;-82
2022/09/25 13:25:50;;;;;;;2.70;1.10;;;16.80;99.90;;;;;;6184471;23;20445;-82
2022/09/25 13:28:25;;;;;;;3.53;1.20;;;16.60;99.90;;;;;;6183105;23;20017;-82
2022/09/25 13:31:11;;;;;;;3.45;1.30;;;16.50;99.90;;;;;;6184322;23;20028;-82
2022/09/25 13:33:54;;;;;;;4.07;1.20;;;16.30;99.90;;;;;;6184426;23;20024;-82
2022/09/25 13:36:24;;;;;;;3.55;1.05;;;16.70;99.90;;;;;;6183652;23;20028;-82
2022/09/25 13:42:22;;;;;;;2.92;1.30;;;15.90;99.90;;;;;;6183097;23;20016;-82
2022/09/25 13:45:05;;;;;;;8.05;1.40;;;15.80;99.90;;;;;;6185658;23;20076;-82
2022/09/25 13:47:32;;;;;;;6.00;1.50;;;15.70;99.90;;;;;;6184931;23;20020;-81
2022/09/25 13:50:25;;;;;;;3.08;1.20;;;16.10;99.90;;;;;;6183786;23;20450;-82
2022/09/25 13:53:19;;;;;;;5.47;1.48;;;15.50;99.90;;;;;;6185347;23;20381;-82
2022/09/25 13:55:54;;;;;;;5.72;1.40;;;15.90;99.90;;;;;;6183080;23;20028;-82
2022/09/25 13:58:25;;;;;;;7.18;1.50;;;15.30;99.90;;;;;;6185285;23;20021;-82
2022/09/25 14:00:57;;;;;;;6.47;1.63;;;15.20;99.90;;;;;;6183884;23;20068;-82
2022/09/25 14:03:34;;;;;;;3.92;1.30;;;15.20;99.90;;;;;;6184588;23;20013;-82
2022/09/25 14:06:01;;;;;;;4.15;1.30;;;15.10;99.90;;;;;;6185890;23;20021;-81
2022/09/25 14:08:29;;;;;;;4.45;1.30;;;15.10;99.90;;;;;;6183066;23;20028;-82
2022/09/25 14:10:57;;;;;;;5.82;1.30;;;15.50;99.90;;;;;;6183638;23;20032;-82
2022/09/25 14:13:26;;;;;;;6.30;1.95;;;14.90;99.90;;;;;;6183568;23;20349;-82
2022/09/25 14:15:58;;;;;;;5.95;1.50;;;14.90;99.90;;;;;;6182908;23;20348;-82
2022/09/25 14:18:39;;;;;;;4.80;1.30;;;14.80;99.90;;;;;;6183356;23;20048;-82
2022/09/25 14:21:06;;;;;;;6.28;1.58;;;15.10;99.90;;;;;;6183969;23;20021;-82